Messwerte Jackson

Temperatur

Temperatur
°C
1574132400 22.00 22.00 -1
1574136000 23.00 23.00 -2
1574139600 0.00 0.00 -3
1574143200 1.00 1.00 0
1574146800 2.00 2.00 1
1574150400 3.00 3.00 1
1574154000 4.00 4.00 2
1574157600 5.00 5.00
1574161200 6.00 6.00 2
1574164800 7.00 7.00 2
1574168400 8.00 8.00 2
1574172000 9.00 9.00 3
1574175600 10.00 10.00 3
1574179200 11.00 11.00 3
1574182800 12.00 12.00 4
1574186400 13.00 13.00 4
1574190000 14.00 14.00
1574193600 15.00 15.00 4
1574197200 16.00 16.00 4
1574200800 17.00 17.00 4
1574204400 18.00 18.00 2
1574208000 19.00 19.00 2
1574211600 20.00 20.00 1
1574215200 21.00 21.00 1

Aktuellste Messwerte

Wettercharakter
Wetter: Nebel
Temperatur
-1 °C
Feuchtigkeit
85 %
Wind
0 km/h, -
Luftdruck
1014 hPa
Messzeit: 19. November 2019, 22.00Datenquelle: METAR

Weitere Messstationen in der Nähe

Messstation Temperatur Entfernung
Mason 3 °C 35 km
Hillsdale 0 °C 39 km
Marshall -1 °C 41 km
Charlotte 0 °C 45 km
Adrian 1 °C 53 km
Howell 2 °C 57 km
Lansing 2 °C 58 km

Wind

Windrichtung Böen Mittelwind
° km/h km/h
1574132400 22.00 21.00 - 22.00 220° 5
1574136000 23.00 22.00 - 23.00 220° 5
1574139600 0.00 23.00 - 0.00 240° 5
1574143200 1.00 0.00 - 1.00 200° 5
1574146800 2.00 1.00 - 2.00 240° 5
1574150400 3.00 2.00 - 3.00 0
1574154000 4.00 3.00 - 4.00 220° 0
1574157600 5.00 4.00 - 5.00
1574161200 6.00 5.00 - 6.00 210° 0
1574164800 7.00 6.00 - 7.00 220° 5
1574168400 8.00 7.00 - 8.00 240° 5
1574172000 9.00 8.00 - 9.00 220° 5
1574175600 10.00 9.00 - 10.00 230° 5
1574179200 11.00 10.00 - 11.00 230° 5
1574182800 12.00 11.00 - 12.00 220° 10
1574186400 13.00 12.00 - 13.00 230° 10
1574190000 14.00 13.00 - 14.00
1574193600 15.00 14.00 - 15.00 240° 10
1574197200 16.00 15.00 - 16.00 240° 5
1574200800 17.00 16.00 - 17.00 0
1574204400 18.00 17.00 - 18.00 0
1574208000 19.00 18.00 - 19.00 0
1574211600 20.00 19.00 - 20.00 210° 5
1574215200 21.00 20.00 - 21.00 0

Ihre Wetterstation

Fehlt Ihre Wetterstation auf unserem Portal?

Schreiben Sie an network@meteonews.ch

Klima

Wann ist es am wärmsten? Wann regnet es am wenigsten? Unsere Klimadaten geben Auskunft.